Tamarack, Idaho
Current Conditions -  °F | °C
As of 12:51 AM on Friday 31 Oct 2014 (Local Time) from KMYL Reporting Station
Clear Clear  
Wind Chill: 41°   Ceiling: Unl
Heat Index: 41°   Visibility: 10mi
Dew Point: 37°   Wind: 3mph
Humidity: 86%   Direction: 50°NE
Pressure: 29.93"   Gusts: NA
Location:  44.7667°N, 116.117°W
Report Text: KMYL 310651Z AUTO 05003KT 10SM CLR 05/03 A2993 RMK AO2 SLP127 T00500028 401610011
Loading
Personal Weather Stations






























Interactive Weather Map
Tropical Storm Tracking
New forecast layout! Learn more

10-Day Weather Forecast

Advertisements
Track Severe Weather on mobile